Lane, Kansas
Current Conditions -  °F | °C
As of 6:53 PM on Sunday 23 Nov 2014 (Local Time) from KIXD Reporting Station
Light Rain Light Rain  
Wind Chill: 32°   Ceiling: 1500
Heat Index: 42°   Visibility: 5mi
Dew Point: 40°   Wind: 28mph
Humidity: 92%   Direction: 330°NNW
Pressure: 29.44"   Gusts: 35mph
Location:  38.44°N, 95.08°W
Report Text: KIXD 240053Z 33024G30KT 5SM -RA BR BKN015 OVC021 06/04 A2944 RMK AO2 PK WND 33034/2359 RAB01 SLP969 P0004 T00560044 $
Loading
Personal Weather Stations






























Interactive Weather Map New forecast layout! Learn more

10-Day Weather Forecast

Advertisements
Track Severe Weather on mobile